Time;durP1;ratioP1;P1;durP2;ratioP2;P2;SDS_P1;SDS_P2;PMS_P1;PMS_P2;Temp;Humidity;BMP_temperature;BMP_pressure;BME280_temperature;BME280_humidity;BME280_pressure;Samples;Min_cycle;Max_cycle;Signal;HPM_P1;HPM_P2
2021/12/27 00:01:49;;;;;;;41.92;21.02;;;2.80;99.90;;;;;;5075674;28;20143;-76
2021/12/27 00:04:15;;;;;;;50.17;22.58;;;2.80;99.90;;;;;;5094754;28;20022;-76
2021/12/27 00:06:41;;;;;;;35.88;19.05;;;2.80;99.90;;;;;;5094269;28;20447;-75
2021/12/27 00:09:06;;;;;;;45.28;22.50;;;2.80;99.90;;;;;;5094177;28;20028;-75
2021/12/27 00:11:32;;;;;;;46.03;22.60;;;2.80;99.90;;;;;;5093384;28;20038;-75
2021/12/27 00:13:57;;;;;;;49.40;22.77;;;2.80;99.90;;;;;;5093721;28;20099;-75
2021/12/27 00:16:23;;;;;;;46.60;22.45;;;2.80;99.90;;;;;;5094086;28;20032;-75
2021/12/27 00:18:49;;;;;;;45.35;22.00;;;2.80;99.90;;;;;;5076401;28;20036;-75
2021/12/27 00:21:14;;;;;;;49.38;23.05;;;2.80;99.90;;;;;;5094185;28;20020;-75
2021/12/27 00:23:40;;;;;;;48.78;23.10;;;2.80;99.90;;;;;;5075942;28;20063;-75
2021/12/27 00:26:06;;;;;;;58.33;24.95;;;2.80;99.90;;;;;;5094283;28;20051;-76
2021/12/27 00:28:33;;;;;;;46.88;22.35;;;2.70;99.90;;;;;;5075974;28;20035;-76
2021/12/27 00:30:59;;;;;;;50.72;24.38;;;2.70;99.90;;;;;;5094680;28;20069;-76
2021/12/27 00:33:25;;;;;;;50.13;22.65;;;2.70;99.90;;;;;;5094148;28;20070;-76
2021/12/27 00:35:51;;;;;;;44.15;22.67;;;2.70;99.90;;;;;;5094306;28;20023;-76
2021/12/27 00:38:17;;;;;;;50.33;23.35;;;2.70;99.90;;;;;;5094250;28;20024;-76
2021/12/27 00:40:43;;;;;;;54.38;23.20;;;2.80;99.90;;;;;;5093712;28;20035;-76
2021/12/27 00:43:09;;;;;;;50.97;23.98;;;2.80;99.90;;;;;;5093679;28;20028;-76
2021/12/27 00:45:35;;;;;;;45.85;22.55;;;2.80;99.90;;;;;;5093918;28;20020;-76
2021/12/27 00:48:00;;;;;;;51.45;22.85;;;2.80;99.90;;;;;;5093476;28;20028;-76
2021/12/27 00:50:27;;;;;;;46.17;23.85;;;2.80;99.90;;;;;;5079791;28;20771;-76
2021/12/27 00:52:52;;;;;;;52.65;23.90;;;2.80;99.90;;;;;;5073700;28;20373;-76
2021/12/27 00:55:19;;;;;;;57.75;23.30;;;2.80;99.90;;;;;;5073515;28;20111;-76
2021/12/27 00:57:46;;;;;;;52.08;24.08;;;2.80;99.90;;;;;;5073474;28;20032;-76
2021/12/27 01:00:17;;;;;;;50.47;24.55;;;2.80;99.90;;;;;;5074755;28;20024;-76
2021/12/27 01:02:44;;;;;;;55.33;25.23;;;2.80;99.90;;;;;;5093688;28;20017;-76
2021/12/27 01:05:11;;;;;;;48.08;24.15;;;2.80;99.90;;;;;;5093748;28;20025;-76
2021/12/27 01:07:36;;;;;;;57.55;25.85;;;2.90;99.90;;;;;;5093692;28;20059;-76
2021/12/27 01:17:59;;;;;;;67.38;23.70;;;2.90;99.90;;;;;;5093156;28;20024;-75
2021/12/27 01:20:25;;;;;;;60.47;26.70;;;2.80;99.90;;;;;;5092749;28;20012;-75
2021/12/27 01:22:53;;;;;;;64.45;25.23;;;2.80;99.90;;;;;;5092095;28;20040;-75
2021/12/27 01:25:19;;;;;;;54.38;24.38;;;2.90;99.90;;;;;;5092734;28;20069;-76
2021/12/27 01:27:45;;;;;;;54.00;24.85;;;2.80;99.90;;;;;;5093204;28;20028;-76
2021/12/27 01:30:19;;;;;;;52.28;24.48;;;2.90;99.90;;;;;;5092830;28;20027;-75
2021/12/27 01:32:50;;;;;;;62.70;25.90;;;2.90;99.90;;;;;;5092594;28;20020;-76
2021/12/27 01:35:17;;;;;;;52.33;24.40;;;2.90;99.90;;;;;;5092469;28;20047;-76
2021/12/27 01:37:43;;;;;;;50.08;23.90;;;2.90;99.90;;;;;;5092474;28;20517;-76
2021/12/27 01:40:11;;;;;;;57.03;25.73;;;2.90;99.90;;;;;;5092437;28;20028;-76
2021/12/27 01:42:37;;;;;;;56.08;24.65;;;2.90;99.90;;;;;;5092684;28;20059;-76
2021/12/27 01:45:04;;;;;;;56.80;23.25;;;2.90;99.90;;;;;;5093013;28;20047;-76
2021/12/27 01:47:31;;;;;;;52.75;23.73;;;2.90;99.90;;;;;;5093394;28;20025;-76
2021/12/27 01:49:57;;;;;;;47.88;23.42;;;2.90;99.90;;;;;;5083788;28;20025;-76
2021/12/27 01:52:22;;;;;;;42.88;21.67;;;2.90;99.90;;;;;;5073053;28;20036;-76
2021/12/27 01:54:50;;;;;;;50.38;23.10;;;2.90;99.90;;;;;;5072849;28;20538;-76
2021/12/27 01:57:16;;;;;;;49.00;23.02;;;2.80;99.90;;;;;;5072792;28;20028;-76
2021/12/27 01:59:42;;;;;;;50.95;22.70;;;2.90;99.90;;;;;;5072565;28;20044;-76
2021/12/27 02:02:07;;;;;;;55.30;24.10;;;2.90;99.90;;;;;;5072620;28;20021;-76
2021/12/27 02:04:33;;;;;;;58.22;25.02;;;2.90;99.90;;;;;;5072595;28;20064;-76
2021/12/27 02:06:58;;;;;;;50.78;23.73;;;2.90;99.90;;;;;;5072707;28;20463;-76
2021/12/27 02:09:34;;;;;;;48.47;23.48;;;3.00;99.90;;;;;;5072398;28;20056;-76
2021/12/27 02:12:00;;;;;;;60.58;24.95;;;3.00;99.90;;;;;;5054675;28;20395;-76
2021/12/27 02:14:25;;;;;;;58.85;24.40;;;3.00;99.90;;;;;;5071975;28;20032;-76
2021/12/27 02:16:51;;;;;;;58.50;23.88;;;2.90;99.90;;;;;;5072196;28;20082;-76
2021/12/27 02:19:16;;;;;;;55.17;24.85;;;2.90;99.90;;;;;;5053983;28;20024;-76
2021/12/27 02:21:42;;;;;;;57.40;23.55;;;2.90;99.90;;;;;;5090507;28;20482;-76
2021/12/27 02:24:08;;;;;;;56.40;25.20;;;3.00;99.90;;;;;;5094208;28;20135;-76
2021/12/27 02:26:34;;;;;;;56.08;26.13;;;2.90;99.90;;;;;;5096960;28;20031;-76
2021/12/27 02:29:00;;;;;;;64.75;26.58;;;3.00;99.90;;;;;;5096696;28;20031;-76
2021/12/27 02:31:27;;;;;;;60.97;24.80;;;2.90;99.90;;;;;;5096597;28;20446;-76
2021/12/27 02:33:53;;;;;;;49.85;22.77;;;3.00;99.90;;;;;;5096220;28;20352;-76
2021/12/27 02:36:19;;;;;;;45.90;22.55;;;3.00;99.90;;;;;;5096337;28;20028;-76
2021/12/27 02:38:46;;;;;;;54.80;23.63;;;3.00;99.90;;;;;;5096353;28;20019;-76
2021/12/27 02:41:12;;;;;;;45.10;22.45;;;3.00;99.90;;;;;;5096383;28;20022;-76
2021/12/27 02:43:41;;;;;;;50.30;23.50;;;3.10;99.90;;;;;;5096225;28;20133;-76
2021/12/27 02:46:09;;;;;;;52.95;24.45;;;3.10;99.90;;;;;;5096182;28;20020;-76
2021/12/27 02:48:38;;;;;;;54.95;23.73;;;3.10;99.90;;;;;;5096249;28;20043;-76
2021/12/27 02:51:05;;;;;;;60.53;25.33;;;3.10;99.90;;;;;;5076928;28;20032;-76
2021/12/27 02:53:31;;;;;;;59.83;25.65;;;3.10;99.90;;;;;;5075827;28;20486;-76
2021/12/27 02:55:59;;;;;;;66.47;26.90;;;3.10;99.90;;;;;;5075627;28;20036;-76
2021/12/27 02:58:25;;;;;;;47.30;22.85;;;3.20;99.90;;;;;;5075683;28;20066;-76
2021/12/27 03:00:51;;;;;;;59.33;25.45;;;3.10;99.90;;;;;;5075947;28;20028;-76
2021/12/27 03:03:16;;;;;;;54.67;23.80;;;3.20;99.90;;;;;;5076132;28;20025;-76
2021/12/27 03:05:44;;;;;;;57.35;24.65;;;3.20;99.90;;;;;;5075608;28;20124;-75
2021/12/27 03:08:14;;;;;;;56.63;25.25;;;3.20;99.90;;;;;;5075607;28;20029;-76
2021/12/27 03:10:41;;;;;;;77.97;28.40;;;3.20;99.90;;;;;;5075510;28;20037;-76
2021/12/27 03:13:07;;;;;;;60.00;24.20;;;3.20;99.90;;;;;;5075584;28;20443;-76
2021/12/27 03:15:32;;;;;;;68.68;26.35;;;3.20;99.90;;;;;;5075308;28;20036;-76
2021/12/27 03:17:58;;;;;;;59.15;25.95;;;3.20;99.90;;;;;;5075110;28;20029;-76
2021/12/27 03:20:26;;;;;;;91.22;28.55;;;3.20;99.90;;;;;;5082373;28;20019;-76
2021/12/27 03:22:53;;;;;;;66.88;26.77;;;3.20;99.90;;;;;;5095197;28;20751;-76
2021/12/27 03:25:22;;;;;;;78.30;28.67;;;3.20;99.90;;;;;;5077387;28;20359;-76
2021/12/27 03:27:48;;;;;;;63.75;24.40;;;3.30;99.90;;;;;;5077223;28;20031;-76
2021/12/27 03:30:16;;;;;;;65.72;25.75;;;3.20;99.90;;;;;;5095400;28;20391;-76
2021/12/27 03:32:44;;;;;;;90.30;29.77;;;3.20;99.90;;;;;;5095174;28;20040;-76
2021/12/27 03:35:15;;;;;;;90.43;28.33;;;3.30;99.90;;;;;;5075798;28;20028;-76
2021/12/27 03:37:47;;;;;;;84.55;29.13;;;3.30;99.90;;;;;;5095399;28;20028;-76
2021/12/27 03:40:15;;;;;;;101.55;30.27;;;3.40;99.90;;;;;;5077032;28;20020;-76
2021/12/27 03:42:41;;;;;;;77.50;29.67;;;3.30;99.90;;;;;;5095271;28;20094;-76
2021/12/27 03:45:09;;;;;;;97.72;30.48;;;3.30;99.90;;;;;;5076970;28;20025;-76
2021/12/27 03:47:35;;;;;;;76.78;28.77;;;3.30;99.90;;;;;;5095031;28;20036;-76
2021/12/27 03:50:02;;;;;;;72.85;26.55;;;3.30;99.90;;;;;;5084865;28;20406;-76
2021/12/27 03:52:28;;;;;;;67.07;24.98;;;3.30;99.90;;;;;;5074743;28;20033;-76
2021/12/27 03:54:53;;;;;;;75.53;27.13;;;3.40;99.90;;;;;;5074642;28;20085;-76
2021/12/27 03:57:19;;;;;;;93.88;28.98;;;3.40;99.90;;;;;;5074800;28;20112;-76
2021/12/27 04:02:14;;;;;;;101.97;31.50;;;3.40;99.90;;;;;;5074431;28;20023;-76
2021/12/27 04:04:42;;;;;;;70.07;25.75;;;3.40;99.90;;;;;;5074524;28;20035;-76
2021/12/27 04:07:09;;;;;;;76.55;28.20;;;3.40;99.90;;;;;;5074519;28;20035;-76
2021/12/27 04:09:36;;;;;;;78.13;27.35;;;3.50;99.90;;;;;;5056157;28;20035;-76
2021/12/27 04:12:02;;;;;;;75.00;26.00;;;3.50;99.90;;;;;;5074471;28;20033;-76
2021/12/27 04:14:28;;;;;;;82.22;26.88;;;3.50;99.90;;;;;;5074226;28;20035;-76
2021/12/27 04:16:54;;;;;;;58.10;24.85;;;3.50;99.90;;;;;;5073955;28;20036;-76
2021/12/27 04:19:20;;;;;;;96.07;30.05;;;3.50;99.90;;;;;;5074128;28;20079;-76
2021/12/27 04:21:46;;;;;;;133.32;34.85;;;3.50;99.90;;;;;;5073906;28;20534;-76
2021/12/27 04:24:12;;;;;;;66.70;25.88;;;3.60;99.90;;;;;;5073750;28;20455;-76
2021/12/27 04:26:38;;;;;;;88.45;29.35;;;3.60;99.90;;;;;;5073847;28;20071;-76
2021/12/27 04:29:05;;;;;;;88.57;29.50;;;3.60;99.90;;;;;;5073784;28;20028;-76
2021/12/27 04:31:30;;;;;;;73.18;27.00;;;3.60;99.90;;;;;;5073773;28;20021;-76
2021/12/27 04:33:56;;;;;;;74.15;26.70;;;3.60;99.90;;;;;;5073701;28;20528;-76
2021/12/27 04:36:21;;;;;;;71.13;26.27;;;3.60;99.90;;;;;;5073743;28;20024;-76
2021/12/27 04:38:47;;;;;;;90.40;29.42;;;3.60;99.90;;;;;;5074094;28;20024;-76
2021/12/27 04:41:16;;;;;;;73.72;27.05;;;3.60;99.90;;;;;;5073642;28;20020;-76
2021/12/27 04:43:42;;;;;;;74.45;27.52;;;3.60;99.90;;;;;;5073728;28;20016;-76
2021/12/27 04:46:07;;;;;;;68.22;26.35;;;3.60;99.90;;;;;;5055452;28;20458;-76
2021/12/27 04:48:33;;;;;;;133.20;33.25;;;3.60;99.90;;;;;;5073398;28;20063;-76
2021/12/27 04:50:59;;;;;;;75.72;27.20;;;3.60;99.90;;;;;;5091562;28;20037;-76
2021/12/27 04:53:25;;;;;;;62.70;25.30;;;3.60;99.90;;;;;;5093939;28;20441;-76
2021/12/27 04:55:51;;;;;;;59.97;25.27;;;3.70;99.90;;;;;;5093769;28;20064;-76
2021/12/27 04:58:20;;;;;;;106.38;31.88;;;3.70;99.90;;;;;;5093602;28;20122;-76
2021/12/27 05:00:46;;;;;;;86.15;27.88;;;3.70;99.90;;;;;;5093486;28;20024;-76
2021/12/27 05:03:12;;;;;;;65.75;25.67;;;3.80;99.90;;;;;;5093571;28;20039;-76
2021/12/27 05:05:41;;;;;;;58.88;24.60;;;3.80;99.90;;;;;;5092709;28;20031;-76
2021/12/27 05:08:07;;;;;;;60.63;24.70;;;3.80;99.90;;;;;;5092675;28;20038;-75
2021/12/27 05:10:33;;;;;;;53.58;24.70;;;3.80;99.90;;;;;;5092341;28;20028;-75
2021/12/27 05:12:59;;;;;;;80.15;27.70;;;3.80;99.90;;;;;;5092428;28;20536;-75
2021/12/27 05:15:25;;;;;;;65.45;24.65;;;3.80;99.90;;;;;;5092397;28;20028;-75
2021/12/27 05:17:50;;;;;;;59.60;24.73;;;3.80;99.90;;;;;;5092226;28;20648;-75
2021/12/27 05:20:16;;;;;;;63.63;24.77;;;3.80;99.90;;;;;;5091979;28;20031;-75
2021/12/27 05:22:42;;;;;;;85.00;27.27;;;3.80;99.90;;;;;;5092150;28;20020;-75
2021/12/27 05:25:11;;;;;;;55.95;24.60;;;3.80;99.90;;;;;;5092059;28;20032;-75
2021/12/27 05:27:38;;;;;;;57.00;23.50;;;3.80;99.90;;;;;;5092232;28;20035;-75
2021/12/27 05:30:06;;;;;;;66.38;25.73;;;3.90;99.90;;;;;;5073910;28;20115;-76
2021/12/27 05:32:32;;;;;;;48.50;21.45;;;3.90;99.90;;;;;;5092257;28;20053;-76
2021/12/27 05:34:58;;;;;;;88.95;27.70;;;3.80;99.90;;;;;;5092046;28;20028;-76
2021/12/27 05:37:23;;;;;;;90.78;27.25;;;3.80;99.90;;;;;;5092023;28;20028;-76
2021/12/27 05:39:49;;;;;;;77.00;26.15;;;3.90;99.90;;;;;;5091899;28;20534;-76
2021/12/27 05:42:15;;;;;;;116.38;30.65;;;3.90;99.90;;;;;;5092035;28;20050;-75
2021/12/27 05:44:41;;;;;;;77.85;26.77;;;3.90;99.90;;;;;;5091890;28;20020;-75
2021/12/27 05:47:06;;;;;;;72.90;27.13;;;3.90;99.90;;;;;;5091936;28;20027;-75
2021/12/27 05:49:32;;;;;;;66.38;25.38;;;4.00;99.90;;;;;;5091653;28;20036;-75
2021/12/27 05:51:58;;;;;;;124.28;30.60;;;3.90;99.90;;;;;;5091893;28;20032;-75
2021/12/27 05:54:23;;;;;;;104.47;29.20;;;3.90;99.90;;;;;;5073541;28;20141;-75
2021/12/27 05:56:50;;;;;;;226.75;39.15;;;4.00;99.90;;;;;;5091878;28;20752;-75
2021/12/27 05:59:16;;;;;;;86.13;29.50;;;4.00;99.90;;;;;;5093680;28;20040;-75
2021/12/27 06:01:43;;;;;;;102.18;28.77;;;4.00;99.90;;;;;;5096128;28;20016;-76
2021/12/27 06:04:09;;;;;;;103.90;30.42;;;4.00;99.90;;;;;;5095996;28;20042;-75
2021/12/27 06:06:35;;;;;;;222.70;39.08;;;4.00;99.90;;;;;;5096023;28;20020;-75
2021/12/27 06:09:02;;;;;;;194.55;37.28;;;4.00;99.90;;;;;;5096144;28;20493;-75
2021/12/27 06:11:28;;;;;;;89.30;28.25;;;4.10;99.90;;;;;;5095686;28;20051;-75
2021/12/27 06:13:53;;;;;;;99.05;29.73;;;4.00;99.90;;;;;;5095716;28;20394;-75
2021/12/27 06:16:20;;;;;;;183.65;36.95;;;4.00;99.90;;;;;;5077527;28;20020;-75
2021/12/27 06:18:46;;;;;;;215.35;38.25;;;4.00;99.90;;;;;;5095607;28;20103;-75
2021/12/27 06:21:11;;;;;;;239.52;40.20;;;4.00;99.90;;;;;;5077240;28;20497;-75
2021/12/27 06:23:37;;;;;;;74.45;29.30;;;4.00;99.90;;;;;;5077034;28;20139;-75
2021/12/27 06:26:03;;;;;;;106.72;31.13;;;4.00;99.90;;;;;;5095285;28;20024;-75
2021/12/27 06:28:31;;;;;;;88.00;29.75;;;4.00;99.90;;;;;;5095464;28;20030;-74
2021/12/27 06:30:57;;;;;;;131.32;33.75;;;4.00;99.90;;;;;;5095484;28;20118;-74
2021/12/27 06:33:23;;;;;;;77.97;28.90;;;4.10;99.90;;;;;;5095188;28;20107;-74
2021/12/27 06:35:49;;;;;;;336.90;47.47;;;4.00;99.90;;;;;;5095396;28;20456;-76
2021/12/27 06:38:14;;;;;;;140.05;32.72;;;4.10;99.90;;;;;;5095184;28;20079;-75
2021/12/27 06:40:40;;;;;;;126.55;31.52;;;4.20;99.90;;;;;;5095072;28;20020;-76
2021/12/27 06:43:06;;;;;;;183.13;36.58;;;4.20;99.90;;;;;;5095071;28;20032;-76
2021/12/27 06:45:31;;;;;;;183.68;36.38;;;4.20;99.90;;;;;;5095241;28;20054;-75
2021/12/27 06:47:57;;;;;;;145.10;33.58;;;4.30;99.90;;;;;;5076864;28;20470;-75
2021/12/27 06:50:23;;;;;;;280.98;42.50;;;4.30;99.90;;;;;;5094852;28;20024;-76
2021/12/27 06:52:49;;;;;;;122.78;31.92;;;4.30;99.90;;;;;;5095029;28;20024;-76
2021/12/27 06:55:15;;;;;;;112.82;30.10;;;4.40;99.90;;;;;;5094725;28;20059;-75
2021/12/27 06:57:41;;;;;;;112.03;32.17;;;4.40;99.90;;;;;;5094806;28;20032;-75
2021/12/27 07:00:11;;;;;;;124.40;32.80;;;4.50;99.90;;;;;;5094526;28;20051;-76
2021/12/27 07:02:36;;;;;;;185.75;36.97;;;4.50;99.90;;;;;;5094610;28;20070;-76
2021/12/27 07:05:03;;;;;;;246.85;41.38;;;4.60;99.90;;;;;;5094864;28;20416;-75
2021/12/27 07:07:29;;;;;;;179.85;36.72;;;4.60;99.90;;;;;;5091680;28;20081;-75
2021/12/27 07:09:54;;;;;;;241.55;41.22;;;4.60;99.90;;;;;;5088778;28;20040;-76
2021/12/27 07:12:20;;;;;;;130.90;33.53;;;4.60;99.90;;;;;;5094614;28;20032;-76
2021/12/27 07:14:48;;;;;;;154.25;34.53;;;4.60;99.90;;;;;;5094515;28;20250;-76
2021/12/27 07:17:14;;;;;;;132.15;34.00;;;4.70;99.90;;;;;;5094588;28;20024;-76
2021/12/27 07:19:40;;;;;;;253.63;40.47;;;4.70;99.90;;;;;;5093261;28;20035;-76
2021/12/27 07:22:05;;;;;;;194.60;37.72;;;4.70;99.90;;;;;;5074302;28;20025;-76
2021/12/27 07:24:31;;;;;;;133.70;32.78;;;4.70;99.90;;;;;;5073856;28;20051;-76
2021/12/27 07:26:57;;;;;;;113.70;32.90;;;4.70;99.90;;;;;;5074262;28;20067;-76
2021/12/27 07:29:22;;;;;;;112.70;33.42;;;4.70;99.90;;;;;;5074149;28;20067;-76
2021/12/27 07:31:48;;;;;;;234.40;41.70;;;4.80;99.90;;;;;;5073943;28;20030;-76
2021/12/27 07:34:17;;;;;;;149.30;35.50;;;4.70;99.90;;;;;;5073939;28;20033;-76
2021/12/27 07:36:43;;;;;;;203.80;39.78;;;4.80;99.90;;;;;;5080465;28;20028;-76
2021/12/27 07:39:09;;;;;;;143.23;35.20;;;4.80;99.90;;;;;;5102581;28;20024;-76
2021/12/27 07:41:34;;;;;;;154.25;36.22;;;4.80;99.90;;;;;;5102835;28;20050;-76
2021/12/27 07:44:00;;;;;;;160.48;37.17;;;4.80;99.90;;;;;;5105655;28;20012;-76
2021/12/27 07:46:25;;;;;;;109.20;33.22;;;4.80;99.90;;;;;;5103892;28;20038;-76
2021/12/27 07:48:51;;;;;;;105.18;31.75;;;4.80;99.90;;;;;;5104136;28;20020;-76
2021/12/27 07:51:17;;;;;;;139.88;34.92;;;4.80;99.90;;;;;;5084197;28;20024;-76
2021/12/27 07:53:43;;;;;;;117.50;32.55;;;4.90;99.90;;;;;;5104279;28;20032;-76
2021/12/27 07:56:09;;;;;;;102.43;32.08;;;4.90;99.90;;;;;;5104010;28;20165;-76
2021/12/27 07:58:35;;;;;;;92.30;31.55;;;4.90;99.90;;;;;;5102406;28;20193;-75
2021/12/27 08:01:02;;;;;;;76.20;28.50;;;4.90;99.90;;;;;;5094016;28;20020;-76
2021/12/27 08:03:28;;;;;;;111.22;32.55;;;4.90;99.90;;;;;;5087031;28;20028;-76
2021/12/27 08:05:53;;;;;;;95.55;31.77;;;4.90;99.90;;;;;;5091369;28;20028;-76
2021/12/27 08:08:19;;;;;;;97.28;30.35;;;5.00;99.90;;;;;;5088150;28;20057;-76
2021/12/27 08:10:45;;;;;;;101.50;30.95;;;5.00;99.90;;;;;;5090789;28;20039;-76
2021/12/27 08:13:11;;;;;;;74.15;28.65;;;5.00;99.90;;;;;;5073522;28;20206;-76
2021/12/27 08:15:36;;;;;;;78.72;29.05;;;5.10;99.90;;;;;;5095421;28;20099;-76
2021/12/27 08:18:02;;;;;;;75.00;28.55;;;5.00;99.90;;;;;;5094756;28;20385;-77
2021/12/27 08:20:28;;;;;;;99.38;30.98;;;5.00;99.90;;;;;;5094883;28;20410;-76
2021/12/27 08:22:54;;;;;;;112.10;32.58;;;5.00;99.90;;;;;;5100423;28;20055;-76
2021/12/27 08:25:20;;;;;;;66.07;26.80;;;5.10;99.90;;;;;;5109594;28;20382;-76
2021/12/27 08:27:46;;;;;;;103.55;32.28;;;5.10;99.90;;;;;;5109762;28;20034;-76
2021/12/27 08:30:13;;;;;;;78.25;31.38;;;5.10;99.90;;;;;;5109901;28;20802;-76
2021/12/27 08:32:42;;;;;;;72.30;28.17;;;5.20;99.90;;;;;;5109400;28;20046;-76
2021/12/27 08:35:09;;;;;;;107.32;32.80;;;5.20;99.90;;;;;;5091643;28;20059;-76
2021/12/27 08:37:35;;;;;;;74.43;28.98;;;5.30;99.90;;;;;;5109563;28;20106;-76
2021/12/27 08:40:01;;;;;;;76.95;27.65;;;5.20;99.90;;;;;;5092126;28;20012;-77
2021/12/27 08:42:27;;;;;;;83.10;29.95;;;5.30;99.90;;;;;;5094730;28;20181;-77
2021/12/27 08:44:53;;;;;;;74.40;28.33;;;5.30;99.90;;;;;;5094632;28;20146;-76
2021/12/27 08:47:19;;;;;;;63.60;27.13;;;5.30;99.90;;;;;;5094895;28;20028;-76
2021/12/27 08:49:45;;;;;;;55.65;26.65;;;5.30;99.90;;;;;;5099301;28;20023;-76
2021/12/27 08:52:11;;;;;;;76.32;28.00;;;5.30;99.90;;;;;;5109656;28;20019;-77
2021/12/27 08:54:37;;;;;;;82.90;28.73;;;5.40;99.90;;;;;;5108932;28;20073;-77
2021/12/27 08:57:05;;;;;;;55.97;25.75;;;5.30;99.90;;;;;;5091356;28;20088;-76
2021/12/27 08:59:31;;;;;;;63.83;25.83;;;5.30;99.90;;;;;;5109336;28;20047;-76
2021/12/27 09:01:57;;;;;;;56.65;25.70;;;5.30;99.90;;;;;;5108833;28;20440;-76
2021/12/27 09:04:24;;;;;;;66.30;27.40;;;5.40;99.90;;;;;;5109152;28;20047;-76
2021/12/27 09:06:50;;;;;;;58.60;25.88;;;5.40;99.90;;;;;;5109361;28;20015;-76
2021/12/27 09:09:16;;;;;;;62.90;27.13;;;5.40;99.90;;;;;;5109081;28;20024;-76
2021/12/27 09:11:44;;;;;;;57.42;25.02;;;5.40;99.90;;;;;;5092122;28;20020;-76
2021/12/27 09:14:10;;;;;;;59.65;25.33;;;5.40;99.90;;;;;;5094209;28;20028;-76
2021/12/27 09:16:36;;;;;;;54.45;24.95;;;5.50;99.90;;;;;;5094255;28;20081;-77
2021/12/27 09:19:02;;;;;;;88.07;29.25;;;5.50;99.90;;;;;;5093576;28;20027;-76
2021/12/27 09:21:27;;;;;;;60.00;26.40;;;5.50;99.90;;;;;;5093690;28;20032;-76
2021/12/27 09:23:53;;;;;;;60.13;25.88;;;5.50;99.90;;;;;;5093317;28;20225;-77
2021/12/27 09:26:18;;;;;;;62.40;26.63;;;5.50;99.90;;;;;;5093735;28;20024;-77
2021/12/27 09:28:44;;;;;;;55.30;23.95;;;5.50;99.90;;;;;;5098953;28;20020;-77
2021/12/27 09:31:10;;;;;;;55.35;25.27;;;5.50;99.90;;;;;;5083503;28;20026;-77
2021/12/27 09:33:36;;;;;;;58.13;24.92;;;5.50;99.90;;;;;;5102744;28;20066;-73
2021/12/27 09:36:02;;;;;;;49.40;23.48;;;5.60;99.90;;;;;;5097860;28;20012;-75
2021/12/27 09:38:28;;;;;;;60.58;24.80;;;5.60;99.90;;;;;;5101763;28;20035;-75
2021/12/27 09:40:54;;;;;;;48.92;24.75;;;5.60;99.90;;;;;;5102380;28;20028;-75
2021/12/27 09:43:19;;;;;;;65.63;27.10;;;5.60;99.90;;;;;;5100459;28;20027;-74
2021/12/27 09:45:45;;;;;;;47.65;23.15;;;5.60;99.90;;;;;;5102116;28;20122;-75
2021/12/27 09:48:13;;;;;;;47.47;23.77;;;5.70;99.90;;;;;;5101717;28;20032;-74
2021/12/27 09:50:40;;;;;;;61.63;26.15;;;5.80;99.90;;;;;;5099247;28;20020;-75
2021/12/27 09:53:07;;;;;;;41.78;22.75;;;5.80;99.90;;;;;;5101943;28;20020;-74
2021/12/27 09:55:32;;;;;;;50.00;23.83;;;5.90;99.90;;;;;;5101920;28;20035;-74
2021/12/27 09:57:59;;;;;;;42.17;21.15;;;6.00;99.90;;;;;;5100271;28;20032;-75
2021/12/27 10:00:26;;;;;;;44.90;22.10;;;6.20;99.90;;;;;;5102006;28;20087;-75
2021/12/27 10:02:54;;;;;;;44.97;22.15;;;6.30;99.90;;;;;;5099683;28;20020;-74
2021/12/27 10:05:22;;;;;;;37.58;20.92;;;6.30;99.90;;;;;;5091595;28;20371;-74
2021/12/27 10:07:48;;;;;;;36.65;20.17;;;6.30;99.90;;;;;;5091696;28;20020;-74
2021/12/27 10:10:14;;;;;;;35.85;20.33;;;6.20;99.90;;;;;;5091516;28;20036;-73
2021/12/27 10:12:40;;;;;;;37.08;19.90;;;6.30;99.90;;;;;;5091450;28;20107;-74
2021/12/27 10:15:11;;;;;;;41.05;20.38;;;6.30;99.90;;;;;;5075171;28;20112;-75
2021/12/27 10:17:38;;;;;;;36.90;20.83;;;6.20;99.90;;;;;;5099758;28;20028;-75
2021/12/27 10:20:12;;;;;;;36.72;19.55;;;6.10;99.90;;;;;;5106255;28;20374;-74
2021/12/27 10:22:59;;;;;;;44.20;20.98;;;6.10;99.90;;;;;;5105226;28;20488;-75
2021/12/27 10:25:27;;;;;;;39.38;20.27;;;6.00;99.90;;;;;;5107835;28;20028;-75
2021/12/27 10:27:59;;;;;;;33.33;19.38;;;6.10;99.90;;;;;;5111290;28;20046;-74
2021/12/27 10:30:27;;;;;;;38.17;18.48;;;6.10;99.90;;;;;;5111736;28;20077;-75
2021/12/27 10:33:14;;;;;;;32.67;17.92;;;6.20;99.90;;;;;;5111564;28;20116;-75
2021/12/27 10:35:50;;;;;;;36.60;18.42;;;6.30;99.90;;;;;;5111594;28;20065;-74
2021/12/27 10:38:32;;;;;;;30.85;18.45;;;6.40;99.90;;;;;;5111512;28;20019;-75
2021/12/27 10:41:09;;;;;;;30.00;17.40;;;6.60;99.90;;;;;;5110918;28;20026;-75
2021/12/27 10:43:43;;;;;;;32.80;17.77;;;6.70;99.90;;;;;;5089025;28;20114;-75
2021/12/27 10:46:15;;;;;;;29.30;16.95;;;6.70;99.90;;;;;;5108563;28;20020;-75
2021/12/27 10:48:43;;;;;;;30.58;16.67;;;6.80;99.90;;;;;;5113610;28;20023;-74
2021/12/27 10:51:10;;;;;;;29.15;16.83;;;7.00;99.90;;;;;;5111879;28;20030;-72
2021/12/27 10:53:56;;;;;;;25.70;15.50;;;7.00;99.90;;;;;;5109475;28;20030;-74
2021/12/27 10:56:25;;;;;;;28.05;15.57;;;7.10;99.90;;;;;;5099125;28;20157;-73
2021/12/27 10:59:00;;;;;;;22.83;14.15;;;7.00;99.90;;;;;;5104753;28;20023;-75
2021/12/27 11:01:27;;;;;;;26.33;14.63;;;6.90;99.90;;;;;;5103430;28;20024;-75
2021/12/27 11:03:59;;;;;;;25.00;15.10;;;6.80;99.90;;;;;;5104634;28;20020;-75
2021/12/27 11:06:27;;;;;;;25.33;15.02;;;6.80;99.90;;;;;;5105569;28;20020;-75
2021/12/27 11:08:53;;;;;;;28.40;15.10;;;6.80;99.90;;;;;;5114837;28;20129;-77
2021/12/27 11:11:22;;;;;;;25.58;15.50;;;6.80;99.90;;;;;;5109503;28;20469;-77
2021/12/27 11:13:50;;;;;;;23.35;14.63;;;6.90;99.90;;;;;;5114139;28;20024;-75
2021/12/27 11:16:16;;;;;;;24.05;13.77;;;6.90;99.90;;;;;;5114624;28;21242;-75
2021/12/27 11:18:42;;;;;;;26.70;13.85;;;6.90;99.90;;;;;;5109099;28;20027;-75
2021/12/27 11:21:19;;;;;;;21.08;12.50;;;6.90;99.90;;;;;;5113479;28;20039;-75
2021/12/27 11:23:50;;;;;;;19.88;12.27;;;7.00;99.90;;;;;;5095728;28;20056;-75
2021/12/27 11:26:23;;;;;;;18.42;11.95;;;7.10;99.90;;;;;;5114236;28;20077;-75
2021/12/27 11:28:49;;;;;;;;;;;7.20;99.90;;;;;;5114817;28;20044;-73
2021/12/27 11:31:20;;;;;;;19.77;11.52;;;7.30;99.90;;;;;;5114333;28;20392;-74
2021/12/27 11:34:06;;;;;;;19.05;10.43;;;7.50;99.90;;;;;;5107473;28;20027;-75
2021/12/27 11:36:37;;;;;;;15.98;11.18;;;7.40;99.90;;;;;;5111761;28;20024;-75
2021/12/27 11:39:29;;;;;;;18.42;11.48;;;7.40;99.90;;;;;;5108672;28;20032;-74
2021/12/27 11:42:04;;;;;;;16.75;11.18;;;7.30;99.90;;;;;;5091162;28;20016;-75
2021/12/27 11:44:40;;;;;;;20.00;11.60;;;7.40;99.90;;;;;;5114043;28;20023;-74
2021/12/27 11:47:09;;;;;;;20.63;11.90;;;7.40;99.90;;;;;;5099154;28;20427;-77
2021/12/27 11:49:53;;;;;;;17.80;11.60;;;7.50;99.90;;;;;;5091283;28;20032;-76
2021/12/27 11:52:27;;;;;;;19.20;11.27;;;7.50;99.90;;;;;;5093981;28;20024;-76
2021/12/27 11:54:59;;;;;;;17.17;11.00;;;7.50;99.90;;;;;;5076221;28;20092;-76
2021/12/27 11:57:45;;;;;;;18.48;11.52;;;7.60;99.90;;;;;;5098476;28;20145;-76
2021/12/27 12:00:19;;;;;;;16.92;11.25;;;7.70;99.90;;;;;;5107698;28;20019;-76
2021/12/27 12:02:48;;;;;;;18.10;11.52;;;7.70;99.90;;;;;;5114166;28;20019;-76
2021/12/27 12:05:42;;;;;;;17.75;10.73;;;7.60;99.90;;;;;;5104635;28;20078;-75
2021/12/27 12:08:09;;;;;;;17.65;11.90;;;7.70;99.90;;;;;;5093466;28;20032;-74
2021/12/27 12:10:37;;;;;;;17.08;11.20;;;7.80;99.90;;;;;;5093383;28;20051;-76
2021/12/27 12:13:24;;;;;;;18.25;11.50;;;7.70;99.90;;;;;;5093081;28;20438;-76
2021/12/27 12:16:03;;;;;;;16.00;10.98;;;7.70;99.90;;;;;;5093530;28;20038;-76
2021/12/27 12:18:30;;;;;;;24.98;11.77;;;7.70;99.90;;;;;;5093355;28;20099;-76
2021/12/27 12:20:56;;;;;;;19.98;11.32;;;7.80;99.90;;;;;;5074512;28;20478;-76
2021/12/27 12:23:22;;;;;;;18.50;11.35;;;7.80;99.90;;;;;;5092872;28;20076;-75
2021/12/27 12:25:57;;;;;;;17.08;11.35;;;7.70;99.90;;;;;;5092942;28;20097;-75
2021/12/27 12:28:22;;;;;;;19.33;10.90;;;7.70;99.90;;;;;;5093334;28;20095;-76
2021/12/27 12:30:50;;;;;;;17.88;10.98;;;7.70;99.90;;;;;;5075001;28;20122;-76
2021/12/27 12:33:19;;;;;;;18.67;11.10;;;7.80;99.90;;;;;;5093139;28;20028;-76
2021/12/27 12:35:47;;;;;;;19.42;11.70;;;7.80;99.90;;;;;;5074855;28;20453;-75
2021/12/27 12:38:22;;;;;;;16.77;10.40;;;7.90;99.90;;;;;;5092994;28;20132;-76
2021/12/27 12:41:10;;;;;;;15.85;10.80;;;7.90;99.90;;;;;;5093027;28;20378;-76
2021/12/27 12:43:39;;;;;;;19.48;11.65;;;7.90;99.90;;;;;;5092942;28;20027;-75
2021/12/27 12:46:35;;;;;;;19.23;11.93;;;7.70;99.90;;;;;;5092958;28;20018;-76
2021/12/27 12:49:24;;;;;;;17.02;10.77;;;7.70;99.90;;;;;;5092625;28;20043;-76